Aviation Digital Data Service (ADDS)

Output produced by METARs form (1312 UTC 17 October 2017)
found at http://aviationweather.gov/adds/metars/
 
KPHF 171120Z 1712/1812 01007KT P6SM SKC 
     FM180100 00000KT P6SM SKC